createdAt,value
2018-12-09T00:00:58.796Z,8.60
2018-12-09T00:03:26.201Z,8.70
2018-12-09T00:05:53.644Z,8.70
2018-12-09T00:08:21.032Z,8.60
2018-12-09T00:10:48.541Z,8.60
2018-12-09T00:13:15.950Z,8.50
2018-12-09T00:15:43.592Z,8.40
2018-12-09T00:18:11.017Z,8.20
2018-12-09T00:20:38.572Z,8.00
2018-12-09T00:23:06.153Z,7.90
2018-12-09T00:25:33.568Z,7.80
2018-12-09T00:28:00.987Z,7.80
2018-12-09T00:30:28.372Z,7.80
2018-12-09T00:32:55.899Z,7.80
2018-12-09T00:35:23.315Z,7.80
2018-12-09T00:37:50.740Z,7.80
2018-12-09T00:40:18.158Z,7.90
2018-12-09T00:42:45.612Z,8.00
2018-12-09T00:45:13.117Z,8.10
2018-12-09T00:47:40.544Z,8.30
2018-12-09T00:50:07.964Z,8.30
2018-12-09T00:52:35.375Z,8.40
2018-12-09T00:55:03.016Z,8.40
2018-12-09T00:57:30.472Z,8.50
2018-12-09T00:59:57.889Z,8.40
2018-12-09T01:02:25.348Z,8.50
2018-12-09T01:04:52.744Z,8.50
2018-12-09T01:07:20.175Z,8.50
2018-12-09T01:09:47.840Z,8.50
2018-12-09T01:12:15.315Z,8.50
2018-12-09T01:14:42.730Z,8.50
2018-12-09T01:17:10.190Z,8.70
2018-12-09T01:19:37.705Z,8.60
2018-12-09T01:22:05.275Z,8.60
2018-12-09T01:24:32.684Z,8.70
2018-12-09T01:27:00.139Z,8.80
2018-12-09T01:29:27.549Z,8.70
2018-12-09T01:31:55.016Z,8.70
2018-12-09T01:34:22.413Z,8.70
2018-12-09T01:36:49.848Z,8.70
2018-12-09T01:39:17.257Z,8.70
2018-12-09T01:41:44.697Z,8.60
2018-12-09T01:44:12.236Z,8.70
2018-12-09T01:46:39.651Z,8.60
2018-12-09T01:49:07.056Z,8.50
2018-12-09T01:51:34.507Z,8.50
2018-12-09T01:54:13.772Z,8.50
2018-12-09T01:56:41.386Z,8.50
2018-12-09T01:59:08.909Z,8.40
2018-12-09T02:01:36.443Z,8.40
2018-12-09T02:04:04.232Z,8.30
2018-12-09T02:06:32.115Z,8.30
2018-12-09T02:08:59.616Z,8.20
2018-12-09T02:11:27.375Z,8.20
2018-12-09T02:13:54.937Z,8.10
2018-12-09T02:16:22.625Z,8.10
2018-12-09T02:19:00.323Z,8.10
2018-12-09T02:21:27.759Z,8.00
2018-12-09T02:23:55.192Z,8.10
2018-12-09T02:26:22.595Z,8.10
2018-12-09T02:28:50.022Z,8.00
2018-12-09T02:31:17.461Z,7.90
2018-12-09T02:33:44.893Z,7.90
2018-12-09T02:36:12.322Z,7.80
2018-12-09T02:38:39.748Z,7.80
2018-12-09T02:41:07.184Z,7.80
2018-12-09T02:43:34.690Z,7.80
2018-12-09T02:46:02.221Z,7.90
2018-12-09T02:48:29.670Z,7.80
2018-12-09T02:50:57.081Z,7.90
2018-12-09T02:53:24.607Z,7.80
2018-12-09T02:55:52.033Z,7.80
2018-12-09T02:58:19.580Z,7.80
2018-12-09T03:00:47.213Z,7.80
2018-12-09T03:03:15.087Z,7.80
2018-12-09T03:05:42.497Z,7.80
2018-12-09T03:08:10.048Z,7.80
2018-12-09T03:10:37.539Z,7.80
2018-12-09T03:13:04.949Z,7.80
2018-12-09T03:15:32.779Z,7.80
2018-12-09T03:18:00.200Z,7.80
2018-12-09T03:20:27.860Z,7.80
2018-12-09T03:22:55.322Z,7.80
2018-12-09T03:25:22.772Z,7.80
2018-12-09T03:27:50.626Z,7.70
2018-12-09T03:30:18.072Z,7.80
2018-12-09T03:32:45.522Z,7.70
2018-12-09T03:35:13.202Z,7.70
2018-12-09T03:37:40.623Z,7.60
2018-12-09T03:40:08.576Z,7.50
2018-12-09T03:42:36.070Z,7.40
2018-12-09T03:45:03.757Z,7.30
2018-12-09T03:47:31.223Z,7.10
2018-12-09T03:49:58.765Z,7.00
2018-12-09T03:52:26.527Z,6.90
2018-12-09T03:54:53.997Z,6.80
2018-12-09T03:57:21.437Z,6.70
2018-12-09T03:59:48.858Z,6.70
2018-12-09T04:02:16.264Z,6.50
2018-12-09T04:04:44.137Z,6.50
2018-12-09T04:07:11.694Z,6.40
2018-12-09T04:09:39.151Z,6.30
2018-12-09T04:12:06.572Z,6.40
2018-12-09T04:14:34.042Z,6.30
2018-12-09T04:17:01.975Z,6.30
2018-12-09T04:19:29.505Z,6.30
2018-12-09T04:21:56.932Z,6.30
2018-12-09T04:24:24.405Z,6.40
2018-12-09T04:26:51.818Z,6.40
2018-12-09T04:29:19.676Z,6.50
2018-12-09T04:31:47.090Z,6.50
2018-12-09T04:34:15.255Z,6.60
2018-12-09T04:36:42.695Z,6.60
2018-12-09T04:39:10.121Z,6.60
2018-12-09T04:41:38.018Z,6.60
2018-12-09T04:44:05.511Z,6.60
2018-12-09T04:46:32.935Z,6.40
2018-12-09T04:49:00.366Z,6.40
2018-12-09T04:52:04.402Z,6.30
2018-12-09T04:54:31.869Z,6.30
2018-12-09T04:56:59.370Z,6.30
2018-12-09T04:59:28.955Z,6.30
2018-12-09T05:01:56.365Z,6.40
2018-12-09T05:04:23.776Z,6.30
2018-12-09T05:06:51.298Z,6.30
2018-12-09T05:09:18.757Z,6.10
2018-12-09T05:11:46.669Z,6.20
2018-12-09T05:14:14.091Z,6.10
2018-12-09T05:16:41.505Z,6.10
2018-12-09T05:19:08.933Z,6.10
2018-12-09T05:21:36.349Z,6.00
2018-12-09T05:24:03.909Z,6.10
2018-12-09T05:26:31.316Z,6.10
2018-12-09T05:28:58.771Z,6.30
2018-12-09T05:31:26.197Z,6.40
2018-12-09T05:33:53.824Z,6.50
2018-12-09T05:36:21.236Z,6.50
2018-12-09T05:38:48.671Z,6.60
2018-12-09T05:41:16.096Z,6.60
2018-12-09T05:43:43.546Z,6.50
2018-12-09T05:46:10.947Z,6.50
2018-12-09T05:48:38.481Z,6.40
2018-12-09T05:51:05.936Z,6.40
2018-12-09T05:53:33.414Z,6.40
2018-12-09T05:56:00.950Z,6.30
2018-12-09T05:58:29.555Z,6.30
2018-12-09T06:00:56.971Z,6.20
2018-12-09T06:03:24.420Z,6.20
2018-12-09T06:05:51.834Z,6.10
2018-12-09T06:08:19.488Z,6.10
2018-12-09T06:10:46.949Z,6.10
2018-12-09T06:13:14.387Z,6.10
2018-12-09T06:15:42.149Z,6.00
2018-12-09T06:18:09.592Z,5.90
2018-12-09T06:20:37.039Z,5.90
2018-12-09T06:23:04.452Z,5.70
2018-12-09T06:25:31.895Z,5.70
2018-12-09T06:27:59.738Z,5.70
2018-12-09T06:30:27.308Z,5.60
2018-12-09T06:32:54.707Z,5.50
2018-12-09T06:35:22.137Z,5.50
2018-12-09T06:37:49.592Z,5.60
2018-12-09T06:40:17.150Z,5.60
2018-12-09T06:42:44.713Z,5.70
2018-12-09T06:45:12.274Z,5.70
2018-12-09T06:47:39.703Z,5.70
2018-12-09T06:50:09.384Z,5.70
2018-12-09T06:52:36.794Z,5.80
2018-12-09T06:55:05.220Z,5.80
2018-12-09T06:57:32.738Z,5.80
2018-12-09T07:00:00.187Z,5.90
2018-12-09T07:02:27.591Z,5.90
2018-12-09T07:04:55.031Z,5.80
2018-12-09T07:07:22.795Z,5.80
2018-12-09T07:09:50.220Z,5.80
2018-12-09T07:12:17.629Z,5.80
2018-12-09T07:14:45.049Z,5.90
2018-12-09T07:17:12.481Z,5.90
2018-12-09T07:19:40.323Z,5.90
2018-12-09T07:22:07.896Z,5.90
2018-12-09T07:24:35.357Z,5.90
2018-12-09T07:27:02.763Z,5.90
2018-12-09T07:29:30.228Z,5.90
2018-12-09T07:31:57.747Z,5.90
2018-12-09T07:34:25.289Z,6.00
2018-12-09T07:36:52.704Z,6.00
2018-12-09T07:39:20.140Z,6.00
2018-12-09T07:41:47.579Z,6.10
2018-12-09T07:44:15.112Z,6.10
2018-12-09T07:46:42.905Z,6.10
2018-12-09T07:49:10.419Z,6.20
2018-12-09T07:51:37.998Z,6.20
2018-12-09T07:54:05.508Z,6.30
2018-12-09T07:56:32.958Z,6.40
2018-12-09T07:59:00.396Z,6.40
2018-12-09T08:01:27.836Z,6.40
2018-12-09T08:03:55.244Z,6.50
2018-12-09T08:06:22.700Z,6.60
2018-12-09T08:08:50.164Z,6.60
2018-12-09T08:11:17.576Z,6.70
2018-12-09T08:13:45.105Z,6.70
2018-12-09T08:16:12.640Z,6.70
2018-12-09T08:18:40.048Z,6.70
2018-12-09T08:21:09.126Z,6.70
2018-12-09T08:23:36.728Z,6.70
2018-12-09T08:26:04.174Z,6.70
2018-12-09T08:28:31.572Z,6.80
2018-12-09T08:30:59.031Z,6.70
2018-12-09T08:33:26.428Z,6.60
2018-12-09T08:35:53.867Z,6.70
2018-12-09T08:38:21.285Z,6.70
2018-12-09T08:40:48.712Z,6.60
2018-12-09T08:43:16.239Z,6.60
2018-12-09T08:45:43.690Z,6.50
2018-12-09T08:48:11.099Z,6.50
2018-12-09T08:50:38.564Z,6.60
2018-12-09T08:53:05.983Z,6.60
2018-12-09T08:55:33.532Z,6.50
2018-12-09T08:58:00.937Z,6.50
2018-12-09T09:00:28.369Z,6.30
2018-12-09T09:02:55.804Z,6.30
2018-12-09T09:05:23.232Z,6.40
2018-12-09T09:07:50.625Z,6.40
2018-12-09T09:10:18.053Z,6.40
2018-12-09T09:12:45.481Z,6.40
2018-12-09T09:15:13.081Z,6.40
2018-12-09T09:17:40.557Z,6.40
2018-12-09T09:20:08.198Z,6.50
2018-12-09T09:22:36.451Z,6.40
2018-12-09T09:25:04.235Z,6.50
2018-12-09T09:27:31.749Z,6.40
2018-12-09T09:29:59.172Z,6.50
2018-12-09T09:32:26.640Z,6.60
2018-12-09T09:34:54.075Z,6.60
2018-12-09T09:37:21.511Z,6.50
2018-12-09T09:39:49.006Z,6.50
2018-12-09T09:42:16.428Z,6.50
2018-12-09T09:44:43.842Z,6.50
2018-12-09T09:47:11.289Z,6.50
2018-12-09T09:49:38.747Z,6.60
2018-12-09T09:52:06.216Z,6.70
2018-12-09T09:54:33.619Z,6.70
2018-12-09T09:57:01.051Z,6.70
2018-12-09T09:59:28.436Z,6.70
2018-12-09T10:01:55.945Z,6.70
2018-12-09T10:04:23.395Z,6.70
2018-12-09T10:06:50.795Z,6.60
2018-12-09T10:09:18.254Z,6.70
2018-12-09T10:11:45.660Z,6.70
2018-12-09T10:14:13.045Z,6.80
2018-12-09T10:16:40.552Z,6.80
2018-12-09T10:19:07.939Z,6.90
2018-12-09T10:21:35.355Z,6.90
2018-12-09T10:24:03.018Z,6.90
2018-12-09T10:26:36.425Z,6.90
2018-12-09T10:28:59.865Z,7.00
2018-12-09T10:31:27.403Z,8.50
2018-12-09T10:33:54.783Z,7.80
2018-12-09T10:36:22.422Z,7.30
2018-12-09T10:38:49.880Z,7.10
2018-12-09T10:41:17.412Z,7.10
2018-12-09T10:43:44.788Z,7.00
2018-12-09T10:46:12.336Z,6.90
2018-12-09T10:48:39.736Z,6.90
2018-12-09T10:51:07.156Z,6.90
2018-12-09T10:53:34.633Z,6.90
2018-12-09T10:56:02.074Z,6.90
2018-12-09T10:58:29.500Z,7.00
2018-12-09T11:01:02.486Z,7.00
2018-12-09T11:03:29.913Z,7.00
2018-12-09T11:05:57.325Z,6.90
2018-12-09T11:08:24.731Z,6.90
2018-12-09T11:10:52.146Z,6.90
2018-12-09T11:13:19.677Z,6.90
2018-12-09T11:15:47.064Z,6.90
2018-12-09T11:18:14.612Z,6.90
2018-12-09T11:20:42.002Z,6.80
2018-12-09T11:23:09.540Z,6.90
2018-12-09T11:25:36.931Z,6.90
2018-12-09T11:28:04.346Z,7.00
2018-12-09T11:30:31.724Z,7.10
2018-12-09T11:32:59.256Z,7.00
2018-12-09T11:35:26.680Z,7.00
2018-12-09T11:37:54.073Z,7.00
2018-12-09T11:40:21.472Z,7.00
2018-12-09T11:42:48.879Z,7.00
2018-12-09T11:45:16.262Z,7.00
2018-12-09T11:47:43.748Z,7.00
2018-12-09T11:50:11.137Z,7.10
2018-12-09T11:52:38.713Z,7.10
2018-12-09T11:55:06.256Z,7.10
2018-12-09T11:57:33.699Z,7.10
2018-12-09T12:00:01.112Z,7.00
2018-12-09T12:02:35.383Z,7.00
2018-12-09T12:05:02.906Z,7.00
2018-12-09T12:07:30.348Z,7.00
2018-12-09T12:09:57.830Z,7.00
2018-12-09T12:12:25.316Z,7.10
2018-12-09T12:14:52.691Z,7.10
2018-12-09T12:17:20.140Z,7.10
2018-12-09T12:19:47.529Z,7.00
2018-12-09T12:22:15.003Z,7.10
2018-12-09T12:24:42.401Z,7.10
2018-12-09T12:27:09.848Z,7.10
2018-12-09T12:29:37.273Z,7.10
2018-12-09T12:32:04.747Z,7.10
2018-12-09T12:34:32.172Z,7.20
2018-12-09T12:36:59.653Z,7.20
2018-12-09T12:39:27.205Z,7.30
2018-12-09T12:41:54.662Z,7.30
2018-12-09T12:44:22.077Z,7.40
2018-12-09T12:46:49.508Z,7.50
2018-12-09T12:49:17.237Z,7.50
2018-12-09T12:51:44.699Z,7.50
2018-12-09T12:54:12.366Z,7.50
2018-12-09T12:56:39.812Z,7.60
2018-12-09T12:59:07.219Z,7.60
2018-12-09T13:01:34.652Z,7.60
2018-12-09T13:04:02.092Z,7.80
2018-12-09T13:06:29.632Z,7.80
2018-12-09T13:08:57.141Z,7.70
2018-12-09T13:11:24.559Z,7.70
2018-12-09T13:13:52.097Z,7.60
2018-12-09T13:16:19.587Z,7.60
2018-12-09T13:18:47.063Z,7.60
2018-12-09T13:21:14.644Z,7.70
2018-12-09T13:23:42.072Z,7.60
2018-12-09T13:26:09.589Z,7.50
2018-12-09T13:28:37.450Z,7.50
2018-12-09T13:31:04.836Z,7.40
2018-12-09T13:33:32.394Z,7.30
2018-12-09T13:35:59.776Z,7.30
2018-12-09T13:38:27.202Z,7.30
2018-12-09T13:40:54.601Z,7.30
2018-12-09T13:43:22.065Z,7.20
2018-12-09T13:45:49.463Z,7.20
2018-12-09T13:48:17.184Z,7.20
2018-12-09T13:50:44.713Z,7.20
2018-12-09T13:53:12.167Z,7.20
2018-12-09T13:55:39.572Z,7.20
2018-12-09T13:58:06.987Z,7.20
2018-12-09T14:00:34.380Z,7.30
2018-12-09T14:03:01.837Z,7.30
2018-12-09T14:05:29.316Z,7.30
2018-12-09T14:07:56.776Z,7.20
2018-12-09T14:10:24.195Z,7.10
2018-12-09T14:12:51.628Z,7.00
2018-12-09T14:15:19.061Z,7.00
2018-12-09T14:17:46.498Z,7.00
2018-12-09T14:20:14.010Z,7.00
2018-12-09T14:22:41.454Z,7.10
2018-12-09T14:25:08.870Z,7.00
2018-12-09T14:27:36.643Z,7.10
2018-12-09T14:30:05.420Z,7.20
2018-12-09T14:32:32.880Z,7.20
2018-12-09T14:35:00.278Z,7.20
2018-12-09T14:37:27.791Z,7.20
2018-12-09T14:39:55.253Z,7.20
2018-12-09T14:42:22.703Z,7.20
2018-12-09T14:44:51.010Z,7.20
2018-12-09T14:47:18.392Z,7.30
2018-12-09T14:49:45.845Z,7.20
2018-12-09T14:52:13.258Z,7.20
2018-12-09T14:54:40.680Z,7.20
2018-12-09T14:57:14.791Z,7.20
2018-12-09T14:59:42.230Z,7.20
2018-12-09T15:02:09.634Z,7.10
2018-12-09T15:04:37.056Z,7.10
2018-12-09T15:07:04.591Z,7.00
2018-12-09T15:09:32.137Z,7.10
2018-12-09T15:11:59.687Z,7.10
2018-12-09T15:14:27.142Z,7.00
2018-12-09T15:16:54.727Z,7.00
2018-12-09T15:19:22.176Z,7.00
2018-12-09T15:21:49.563Z,6.90
2018-12-09T15:24:17.023Z,6.90
2018-12-09T15:26:44.455Z,7.00
2018-12-09T15:29:11.902Z,7.00
2018-12-09T15:31:39.291Z,7.00
2018-12-09T15:34:06.728Z,6.90
2018-12-09T15:36:34.127Z,7.00
2018-12-09T15:39:01.564Z,7.00
2018-12-09T15:41:28.961Z,7.00
2018-12-09T15:43:56.521Z,6.90
2018-12-09T15:46:23.913Z,6.90
2018-12-09T15:48:51.357Z,7.00
2018-12-09T15:51:18.903Z,7.00
2018-12-09T15:53:46.299Z,7.00
2018-12-09T15:56:13.746Z,7.00
2018-12-09T15:58:41.140Z,6.90
2018-12-09T16:01:08.579Z,6.90
2018-12-09T16:03:35.984Z,6.90
2018-12-09T16:06:03.628Z,7.00
2018-12-09T16:08:31.032Z,6.90
2018-12-09T16:10:58.455Z,6.90
2018-12-09T16:13:25.837Z,6.80
2018-12-09T16:15:53.260Z,6.80
2018-12-09T16:18:27.392Z,6.90
2018-12-09T16:20:55.044Z,7.00
2018-12-09T16:23:22.427Z,7.00
2018-12-09T16:25:49.851Z,6.90
2018-12-09T16:28:17.241Z,6.90
2018-12-09T16:30:44.676Z,6.90
2018-12-09T16:33:12.056Z,7.00
2018-12-09T16:35:39.483Z,7.00
2018-12-09T16:38:06.869Z,7.10
2018-12-09T16:40:34.331Z,7.30
2018-12-09T16:43:01.703Z,7.20
2018-12-09T16:45:29.137Z,7.20
2018-12-09T16:47:56.521Z,7.20
2018-12-09T16:50:24.072Z,7.20
2018-12-09T16:52:51.457Z,7.30
2018-12-09T16:55:18.887Z,7.20
2018-12-09T16:57:46.262Z,7.30
2018-12-09T17:00:13.687Z,7.30
2018-12-09T17:02:41.061Z,7.30
2018-12-09T17:05:08.648Z,7.30
2018-12-09T17:07:42.079Z,7.30
2018-12-09T17:10:06.436Z,7.10
2018-12-09T17:12:33.831Z,7.00
2018-12-09T17:15:01.279Z,6.80
2018-12-09T17:17:28.692Z,6.60
2018-12-09T17:19:56.145Z,6.60
2018-12-09T17:22:23.522Z,6.60
2018-12-09T17:24:50.968Z,6.60
2018-12-09T17:27:18.356Z,6.60
2018-12-09T17:29:45.787Z,6.70
2018-12-09T17:32:13.179Z,6.60
2018-12-09T17:34:40.683Z,6.70
2018-12-09T17:37:08.071Z,6.80
2018-12-09T17:39:35.504Z,6.80
2018-12-09T17:42:03.053Z,6.70
2018-12-09T17:44:30.518Z,6.70
2018-12-09T17:46:57.980Z,6.70
2018-12-09T17:49:25.380Z,6.60
2018-12-09T17:51:52.824Z,6.80
2018-12-09T17:54:20.219Z,6.70
2018-12-09T17:56:47.652Z,6.80
2018-12-09T17:59:15.055Z,6.90
2018-12-09T18:01:42.514Z,6.90
2018-12-09T18:04:09.926Z,6.90
2018-12-09T18:06:37.433Z,7.00
2018-12-09T18:09:05.807Z,6.90
2018-12-09T18:11:33.280Z,6.90
2018-12-09T18:14:00.732Z,6.80
2018-12-09T18:16:28.225Z,6.80
2018-12-09T18:18:55.656Z,6.80
2018-12-09T18:21:23.236Z,6.80
2018-12-09T18:23:52.559Z,6.70
2018-12-09T18:28:54.487Z,6.80
2018-12-09T18:31:22.346Z,6.80
2018-12-09T18:33:49.780Z,6.80
2018-12-09T18:36:17.243Z,6.80
2018-12-09T18:38:44.668Z,6.80
2018-12-09T18:41:12.217Z,6.80
2018-12-09T18:43:39.631Z,6.60
2018-12-09T18:46:07.132Z,6.70
2018-12-09T18:48:34.539Z,6.70
2018-12-09T18:51:02.016Z,6.70
2018-12-09T18:53:29.413Z,6.70
2018-12-09T18:55:56.907Z,6.70
2018-12-09T18:58:24.333Z,6.70
2018-12-09T19:00:51.818Z,6.70
2018-12-09T19:03:19.352Z,6.80
2018-12-09T19:05:47.613Z,6.80
2018-12-09T19:08:15.360Z,6.70
2018-12-09T19:10:42.960Z,6.80
2018-12-09T19:13:10.381Z,6.70
2018-12-09T19:15:37.876Z,6.80
2018-12-09T19:18:05.301Z,6.80
2018-12-09T19:20:32.877Z,6.80
2018-12-09T19:23:00.417Z,6.80
2018-12-09T19:25:27.886Z,6.70
2018-12-09T19:27:55.324Z,6.70
2018-12-09T19:30:22.777Z,6.70
2018-12-09T19:32:50.285Z,6.80
2018-12-09T19:35:17.739Z,6.80
2018-12-09T19:37:45.152Z,6.80
2018-12-09T19:40:12.785Z,6.90
2018-12-09T19:42:40.270Z,7.00
2018-12-09T19:45:07.728Z,7.00
2018-12-09T19:47:35.300Z,6.90
2018-12-09T19:50:02.967Z,6.90
2018-12-09T19:52:30.565Z,6.90
2018-12-09T19:54:57.967Z,7.00
2018-12-09T19:57:25.424Z,7.00
2018-12-09T19:59:52.817Z,6.90
2018-12-09T20:02:20.264Z,7.00
2018-12-09T20:04:47.676Z,7.00
2018-12-09T20:07:15.523Z,7.00
2018-12-09T20:09:42.922Z,6.90
2018-12-09T20:12:10.374Z,6.90
2018-12-09T20:14:37.841Z,6.90
2018-12-09T20:17:11.956Z,6.80
2018-12-09T20:19:39.363Z,6.90
2018-12-09T20:22:07.287Z,6.80
2018-12-09T20:24:34.857Z,6.60
2018-12-09T20:27:02.329Z,6.50
2018-12-09T20:29:29.727Z,6.50
2018-12-09T20:31:57.329Z,6.40
2018-12-09T20:34:24.896Z,6.30
2018-12-09T20:36:52.462Z,6.30
2018-12-09T20:39:19.859Z,6.40
2018-12-09T20:41:47.303Z,6.40
2018-12-09T20:44:14.698Z,6.30
2018-12-09T20:46:42.134Z,6.40
2018-12-09T20:49:09.525Z,6.30
2018-12-09T20:51:37.018Z,6.30
2018-12-09T20:54:04.411Z,6.40
2018-12-09T20:56:31.868Z,6.40
2018-12-09T20:58:59.247Z,6.50
2018-12-09T21:01:26.682Z,6.40
2018-12-09T21:03:54.068Z,6.40
2018-12-09T21:06:21.564Z,6.30
2018-12-09T21:08:48.953Z,6.30
2018-12-09T21:11:16.411Z,6.30
2018-12-09T21:13:43.810Z,6.30
2018-12-09T21:16:11.362Z,6.40
2018-12-09T21:18:38.764Z,6.50
2018-12-09T21:21:08.244Z,6.50
2018-12-09T21:23:35.733Z,6.50
2018-12-09T21:26:03.300Z,6.50
2018-12-09T21:28:30.688Z,6.50
2018-12-09T21:30:58.148Z,6.40
2018-12-09T21:33:25.554Z,6.40
2018-12-09T21:35:52.971Z,6.50
2018-12-09T21:38:20.384Z,6.50
2018-12-09T21:40:47.780Z,6.50
2018-12-09T21:43:15.188Z,6.50
2018-12-09T21:45:42.567Z,6.50
2018-12-09T21:48:09.993Z,6.40
2018-12-09T21:50:37.386Z,6.40
2018-12-09T21:53:04.819Z,6.50
2018-12-09T21:55:32.212Z,6.50
2018-12-09T21:57:59.681Z,6.50
2018-12-09T22:00:27.080Z,6.50
2018-12-09T22:02:54.530Z,6.50
2018-12-09T22:05:21.921Z,6.40
2018-12-09T22:07:49.475Z,6.50
2018-12-09T22:10:16.867Z,6.40
2018-12-09T22:12:44.519Z,6.40
2018-12-09T22:15:12.020Z,6.30
2018-12-09T22:17:39.459Z,6.30
2018-12-09T22:20:07.799Z,6.30
2018-12-09T22:22:35.237Z,6.30
2018-12-09T22:25:02.751Z,6.30
2018-12-09T22:27:30.155Z,6.40
2018-12-09T22:29:57.532Z,6.30
2018-12-09T22:32:24.944Z,6.20
2018-12-09T22:34:52.316Z,6.10
2018-12-09T22:37:19.711Z,6.10
2018-12-09T22:39:47.100Z,6.10
2018-12-09T22:42:14.529Z,6.00
2018-12-09T22:44:41.912Z,5.90
2018-12-09T22:47:09.321Z,5.70
2018-12-09T22:49:36.828Z,5.60
2018-12-09T22:52:04.484Z,5.70
2018-12-09T22:54:31.852Z,5.70
2018-12-09T22:56:59.269Z,5.80
2018-12-09T22:59:26.651Z,5.90
2018-12-09T23:01:59.982Z,5.90
2018-12-09T23:04:27.504Z,6.00
2018-12-09T23:06:59.463Z,6.00
2018-12-09T23:09:26.864Z,5.90
2018-12-09T23:11:54.289Z,6.00
2018-12-09T23:14:21.671Z,5.90
2018-12-09T23:16:49.088Z,5.90
2018-12-09T23:19:16.467Z,6.00
2018-12-09T23:21:43.887Z,6.10
2018-12-09T23:24:11.277Z,6.00
2018-12-09T23:26:38.696Z,6.00
2018-12-09T23:29:06.095Z,5.90
2018-12-09T23:31:33.507Z,5.90
2018-12-09T23:34:00.887Z,5.80
2018-12-09T23:36:28.296Z,5.80
2018-12-09T23:38:55.688Z,5.80
2018-12-09T23:41:23.088Z,5.70
2018-12-09T23:43:50.492Z,5.70
2018-12-09T23:46:17.872Z,5.80
2018-12-09T23:48:45.281Z,5.80
2018-12-09T23:51:12.666Z,5.80
2018-12-09T23:53:40.059Z,5.80
2018-12-09T23:56:07.534Z,5.70
2018-12-09T23:58:34.939Z,5.70
